Time;durP1;ratioP1;P1;durP2;ratioP2;P2;SDS_P1;SDS_P2;PMS_P1;PMS_P2;Temp;Humidity;BMP_temperature;BMP_pressure;BME280_temperature;BME280_humidity;BME280_pressure;Samples;Min_cycle;Max_cycle;Signal;HPM_P1;HPM_P2
2022/11/20 00:01:49;;;;;;;25.50;17.33;;;;;;;-2.50;95.28;99621.50;4990335;28;20033;-66
2022/11/20 00:04:15;;;;;;;20.50;14.68;;;;;;;-2.59;94.49;99623.75;4986343;28;20041;-65
2022/11/20 00:06:40;;;;;;;21.48;14.70;;;;;;;-2.72;95.50;99624.19;4985888;28;20046;-65
2022/11/20 00:09:06;;;;;;;21.95;15.15;;;;;;;-2.73;94.99;99627.56;4986165;28;20054;-66
2022/11/20 00:11:32;;;;;;;22.25;15.77;;;;;;;-2.71;95.26;99614.09;4985778;28;20085;-64
2022/11/20 00:14:00;;;;;;;26.67;16.30;;;;;;;-2.71;95.26;99613.25;4985382;28;20027;-65
2022/11/20 00:16:28;;;;;;;24.92;16.88;;;;;;;-2.56;94.02;99633.13;4984487;28;20019;-64
2022/11/20 00:18:54;;;;;;;19.05;12.70;;;;;;;-2.69;94.31;99631.91;4991743;28;20164;-65
2022/11/20 00:21:22;;;;;;;19.00;13.68;;;;;;;-2.65;94.02;99621.91;5004167;28;20050;-65
2022/11/20 00:23:49;;;;;;;17.40;12.43;;;;;;;-2.80;93.77;99649.28;4993436;28;20037;-66
2022/11/20 00:26:17;;;;;;;20.45;13.75;;;;;;;-2.75;94.06;99637.66;4985752;28;20030;-66
2022/11/20 00:28:44;;;;;;;20.63;14.82;;;;;;;-2.70;93.75;99636.09;4985553;28;20030;-67
2022/11/20 00:31:11;;;;;;;20.20;14.50;;;;;;;-2.67;93.50;99640.41;4985637;28;20059;-66
2022/11/20 00:33:37;;;;;;;14.23;10.07;;;;;;;-2.75;93.67;99642.72;4984273;28;20199;-66
2022/11/20 00:36:08;;;;;;;16.30;11.13;;;;;;;-2.83;93.27;99629.78;4985426;28;20061;-66
2022/11/20 00:38:34;;;;;;;17.48;12.80;;;;;;;-2.74;93.70;99625.81;4985524;28;20101;-63
2022/11/20 00:41:02;;;;;;;16.90;13.25;;;;;;;-2.67;92.75;99646.31;4985357;28;20150;-63
2022/11/20 00:43:27;;;;;;;20.17;13.93;;;;;;;-2.66;92.39;99637.06;4985144;28;20042;-64
2022/11/20 00:46:00;;;;;;;17.85;12.80;;;;;;;-2.68;93.03;99643.75;4984030;28;20023;-64
2022/11/20 00:48:26;;;;;;;18.00;11.35;;;;;;;-2.87;92.85;99638.09;4983974;28;20034;-64
2022/11/20 00:50:53;;;;;;;16.67;12.13;;;;;;;-2.78;93.01;99622.31;4985319;28;20039;-64
2022/11/20 00:53:19;;;;;;;16.67;13.23;;;;;;;-2.59;93.07;99631.38;4985023;28;20042;-65
2022/11/20 00:55:57;;;;;;;18.33;12.90;;;;;;;-2.77;93.30;99614.75;4985013;28;20083;-66
2022/11/20 00:58:24;;;;;;;16.23;11.60;;;;;;;-2.90;92.38;99634.63;4976948;28;20339;-66
2022/11/20 01:00:50;;;;;;;15.43;11.15;;;;;;;-2.80;92.96;99637.47;4982396;28;20089;-66
2022/11/20 01:03:19;;;;;;;15.60;12.40;;;;;;;-2.72;92.98;99631.78;4984867;28;20042;-65
2022/11/20 01:05:44;;;;;;;15.75;11.57;;;;;;;-2.68;92.38;99634.47;4965294;29;20054;-66
2022/11/20 01:08:10;;;;;;;16.33;11.75;;;;;;;-2.66;91.93;99632.84;4981027;28;20035;-65
2022/11/20 01:10:36;;;;;;;15.55;11.68;;;;;;;-2.60;92.12;99633.03;4984582;28;20022;-66
2022/11/20 01:15:45;;;;;;;14.63;10.70;;;;;;;-2.80;92.19;99631.56;4969654;28;20034;-67
2022/11/20 01:18:11;;;;;;;13.57;11.05;;;;;;;-2.85;92.13;99638.13;4984797;28;20331;-65
2022/11/20 01:20:37;;;;;;;14.13;10.70;;;;;;;-2.71;91.79;99624.22;4983473;28;20027;-66
2022/11/20 01:23:03;;;;;;;15.82;10.85;;;;;;;-2.74;91.89;99620.75;4987692;28;20645;-66
2022/11/20 01:25:29;;;;;;;15.90;10.15;;;;;;;-2.79;91.86;99618.94;4983585;28;20027;-66
2022/11/20 01:27:55;;;;;;;12.32;8.88;;;;;;;-2.84;91.69;99632.28;4984201;28;20035;-64
2022/11/20 01:30:20;;;;;;;13.07;10.50;;;;;;;-2.72;92.47;99624.19;4984496;28;20047;-66
2022/11/20 01:32:46;;;;;;;14.15;10.13;;;;;;;-2.85;91.84;99635.59;4984388;28;20053;-66
2022/11/20 01:35:11;;;;;;;16.65;11.77;;;;;;;-2.80;91.78;99622.28;4984281;28;20031;-65
2022/11/20 01:37:37;;;;;;;15.02;10.50;;;;;;;-2.75;91.69;99624.09;4984219;28;20035;-64
2022/11/20 01:40:03;;;;;;;12.65;10.48;;;;;;;-2.57;92.17;99631.41;4984285;28;20322;-66
2022/11/20 01:45:50;;;;;;;15.35;11.70;;;;;;;-2.33;91.10;99632.13;4984304;28;20030;-65
2022/11/20 01:48:18;;;;;;;14.95;10.65;;;;;;;-2.55;91.03;99642.44;4965510;28;20070;-67
2022/11/20 01:50:44;;;;;;;15.15;10.85;;;;;;;-2.67;91.46;99641.25;4984162;28;20034;-67
2022/11/20 01:53:15;;;;;;;14.15;10.82;;;;;;;-2.58;90.91;99637.28;4983154;28;20343;-66
2022/11/20 01:55:47;;;;;;;15.88;10.45;;;;;;;-2.69;90.33;99645.44;4984078;28;20035;-67
2022/11/20 01:58:13;;;;;;;13.82;10.07;;;;;;;-2.56;90.32;99658.50;4984034;28;20092;-67
2022/11/20 02:00:40;;;;;;;13.50;9.75;;;;;;;-2.82;90.02;99640.75;4983974;28;20350;-68
2022/11/20 02:03:12;;;;;;;13.05;9.70;;;;;;;-2.84;90.84;99643.25;4984262;28;20042;-66
2022/11/20 02:05:46;;;;;;;13.73;9.82;;;;;;;-2.70;90.33;99655.53;4983981;28;20211;-66
2022/11/20 02:08:12;;;;;;;14.15;9.98;;;;;;;-2.83;90.63;99657.66;4980017;28;20046;-67
2022/11/20 02:10:38;;;;;;;14.90;10.38;;;;;;;-2.76;90.76;99656.19;4983730;28;20315;-66
2022/11/20 02:15:49;;;;;;;13.82;10.20;;;;;;;-2.86;91.17;99665.16;4983777;28;20031;-68
2022/11/20 02:18:17;;;;;;;16.27;10.93;;;;;;;-2.90;90.96;99654.88;4984113;28;20043;-67
2022/11/20 02:20:45;;;;;;;17.00;11.48;;;;;;;-2.83;91.08;99646.66;4983767;28;20026;-66
2022/11/20 02:23:21;;;;;;;15.10;10.90;;;;;;;-2.68;91.14;99666.56;4999035;28;20034;-67
2022/11/20 02:25:47;;;;;;;16.23;10.52;;;;;;;-2.80;90.41;99674.63;4993059;28;20034;-66
2022/11/20 02:28:13;;;;;;;15.80;11.35;;;;;;;-2.74;90.90;99669.75;4995973;28;20038;-65
2022/11/20 02:30:39;;;;;;;16.95;11.82;;;;;;;-2.69;90.45;99665.69;4983912;28;20056;-65
2022/11/20 02:33:04;;;;;;;19.27;12.10;;;;;;;-2.58;90.88;99676.16;4984079;28;20089;-65
2022/11/20 02:35:30;;;;;;;14.02;10.40;;;;;;;-2.79;91.01;99677.22;4984049;28;20081;-65
2022/11/20 02:38:02;;;;;;;13.68;10.07;;;;;;;-2.80;91.07;99692.38;4987633;28;20204;-66
2022/11/20 02:40:29;;;;;;;13.23;10.50;;;;;;;-2.64;91.12;99681.03;4987650;28;20101;-65
2022/11/20 02:42:55;;;;;;;16.23;11.32;;;;;;;-2.61;90.84;99676.94;4987633;28;20183;-67
2022/11/20 02:45:22;;;;;;;14.15;10.65;;;;;;;-2.60;90.08;99683.72;4987718;28;20141;-66
2022/11/20 02:47:48;;;;;;;15.10;11.02;;;;;;;-2.69;90.61;99687.66;4987532;28;20386;-66
2022/11/20 02:50:14;;;;;;;16.02;10.98;;;;;;;-2.49;90.75;99679.00;4987222;28;20392;-65
2022/11/20 02:52:39;;;;;;;25.05;11.77;;;;;;;-2.47;89.86;99702.72;4987080;28;20043;-66
2022/11/20 02:55:05;;;;;;;13.10;9.43;;;;;;;-2.71;89.14;99685.06;4987721;28;20031;-65
2022/11/20 02:57:31;;;;;;;14.95;10.50;;;;;;;-2.69;89.93;99688.50;4986561;28;20030;-65
2022/11/20 02:59:57;;;;;;;15.73;10.48;;;;;;;-2.60;90.03;99704.00;4987297;28;20603;-65
2022/11/20 03:02:22;;;;;;;13.43;9.85;;;;;;;-2.66;89.43;99695.34;5003705;28;20195;-65
2022/11/20 03:04:48;;;;;;;11.68;8.40;;;;;;;-2.95;89.87;99696.13;4994954;28;20031;-65
2022/11/20 03:07:14;;;;;;;14.60;10.60;;;;;;;-2.85;89.65;99696.41;4986651;28;20030;-64
2022/11/20 03:09:39;;;;;;;15.65;10.38;;;;;;;-2.62;89.56;99694.66;4987353;28;20029;-64
2022/11/20 03:12:05;;;;;;;15.07;9.70;;;;;;;-2.67;89.28;99701.22;4986906;28;20045;-66
2022/11/20 03:14:31;;;;;;;13.10;9.68;;;;;;;-2.63;88.83;99695.44;4986540;28;20077;-66
2022/11/20 03:16:56;;;;;;;13.32;9.82;;;;;;;-2.58;88.66;99698.13;4986845;28;20319;-66
2022/11/20 03:19:23;;;;;;;16.17;11.38;;;;;;;-2.57;89.05;99694.78;4985489;28;20026;-66
2022/11/20 03:21:48;;;;;;;12.90;9.73;;;;;;;-2.55;88.52;99695.69;4987024;28;20148;-65
2022/11/20 03:24:14;;;;;;;15.82;11.00;;;;;;;-2.61;89.06;99699.75;5002149;28;20049;-65
2022/11/20 03:26:40;;;;;;;16.80;10.23;;;;;;;-2.62;88.67;99690.44;4987949;28;20367;-65
2022/11/20 03:29:06;;;;;;;12.85;9.55;;;;;;;-2.51;89.03;99700.91;4984820;28;20027;-65
2022/11/20 03:31:35;;;;;;;13.90;10.23;;;;;;;-2.56;89.09;99681.31;4985442;28;20039;-65
2022/11/20 03:34:01;;;;;;;16.65;11.63;;;;;;;-2.37;88.55;99705.53;4986639;28;20147;-66
2022/11/20 03:36:28;;;;;;;15.52;10.35;;;;;;;-2.41;88.83;99708.78;4986421;28;20114;-66
2022/11/20 03:38:57;;;;;;;15.02;10.98;;;;;;;-2.54;89.25;99707.56;4986947;28;20030;-66
2022/11/20 03:41:28;;;;;;;15.15;10.98;;;;;;;-2.61;88.85;99711.56;4986597;28;20060;-65
2022/11/20 03:43:56;;;;;;;14.25;10.43;;;;;;;-2.52;88.24;99710.97;4986661;28;20049;-66
2022/11/20 03:46:23;;;;;;;16.15;11.27;;;;;;;-2.60;88.20;99708.22;4986546;28;20031;-66
2022/11/20 03:48:49;;;;;;;15.38;10.07;;;;;;;-2.78;88.41;99711.00;4985455;28;20268;-67
2022/11/20 03:51:23;;;;;;;14.50;10.57;;;;;;;-2.67;89.08;99711.38;4986215;28;20102;-66
2022/11/20 03:53:50;;;;;;;15.35;10.77;;;;;;;-2.62;89.40;99708.16;4985063;28;20042;-66
2022/11/20 03:56:19;;;;;;;13.57;9.95;;;;;;;-2.83;88.91;99705.81;4985745;28;20059;-66
2022/11/20 03:58:44;;;;;;;17.33;11.05;;;;;;;-2.58;88.92;99713.34;4984917;28;20138;-65
2022/11/20 04:01:13;;;;;;;14.35;11.02;;;;;;;-2.74;88.44;99709.44;4986040;28;20034;-66
2022/11/20 04:03:40;;;;;;;15.68;11.65;;;;;;;-2.73;88.75;99690.91;4985795;28;20031;-65
2022/11/20 04:06:10;;;;;;;14.27;10.40;;;;;;;-2.84;88.23;99695.63;4984837;28;20022;-65
2022/11/20 04:08:36;;;;;;;14.50;10.93;;;;;;;-2.73;88.14;99721.31;4984774;28;20323;-66
2022/11/20 04:11:15;;;;;;;15.63;10.45;;;;;;;-2.61;88.37;99720.03;4985951;28;20073;-65
2022/11/20 04:13:42;;;;;;;15.13;10.80;;;;;;;-2.68;88.23;99718.13;4986080;28;20033;-66
2022/11/20 04:16:09;;;;;;;14.90;11.10;;;;;;;-2.50;88.22;99724.59;4991619;28;20111;-65
2022/11/20 04:18:36;;;;;;;15.70;11.02;;;;;;;-2.35;88.54;99721.66;4993224;28;20029;-64
2022/11/20 04:21:03;;;;;;;14.40;10.77;;;;;;;-2.42;87.59;99728.22;4985963;28;20262;-64
2022/11/20 04:23:29;;;;;;;15.25;11.05;;;;;;;-2.45;86.88;99723.91;4992730;28;20081;-64
2022/11/20 04:25:54;;;;;;;15.00;10.27;;;;;;;-2.64;86.90;99735.16;4985535;28;20035;-65
2022/11/20 04:28:20;;;;;;;14.80;10.27;;;;;;;-2.80;87.50;99728.69;4983897;28;20353;-65
2022/11/20 04:30:46;;;;;;;14.40;10.32;;;;;;;-2.66;87.73;99733.38;4984407;28;20039;-65
2022/11/20 04:33:12;;;;;;;13.90;10.45;;;;;;;-2.56;87.31;99740.47;4985519;28;20027;-66
2022/11/20 04:35:38;;;;;;;14.10;10.88;;;;;;;-2.66;87.43;99741.84;4985498;28;20035;-66
2022/11/20 04:38:04;;;;;;;14.23;10.50;;;;;;;-2.66;87.48;99729.16;4985264;28;20037;-65
2022/11/20 04:40:30;;;;;;;17.58;10.30;;;;;;;-2.77;87.60;99738.94;4985364;28;20051;-65
2022/11/20 04:42:56;;;;;;;16.60;11.25;;;;;;;-2.70;87.11;99750.16;4985311;28;20327;-65
2022/11/20 04:45:23;;;;;;;14.48;10.70;;;;;;;-2.66;86.76;99746.91;4983974;28;20031;-66
2022/11/20 04:47:49;;;;;;;13.85;10.18;;;;;;;-2.74;87.31;99768.59;4985010;28;20366;-65
2022/11/20 04:50:15;;;;;;;17.13;11.15;;;;;;;-2.73;87.26;99767.78;4984642;28;20038;-65
2022/11/20 04:52:40;;;;;;;14.95;10.77;;;;;;;-2.62;86.91;99778.28;4985153;28;20043;-65
2022/11/20 04:55:07;;;;;;;14.25;11.10;;;;;;;-2.62;86.99;99773.22;4985151;28;20038;-65
2022/11/20 04:57:33;;;;;;;16.33;11.07;;;;;;;-2.68;86.66;99778.06;4984857;28;20350;-66
2022/11/20 04:59:58;;;;;;;12.93;9.80;;;;;;;-2.74;86.92;99778.72;4983596;28;20039;-65
2022/11/20 05:02:24;;;;;;;14.18;10.43;;;;;;;-2.75;86.97;99787.16;4983712;28;20031;-65
2022/11/20 05:04:49;;;;;;;13.38;9.93;;;;;;;-2.78;87.00;99790.44;4984826;28;20030;-64
2022/11/20 05:07:15;;;;;;;15.27;11.02;;;;;;;-2.79;87.27;99787.88;4976858;28;20031;-65
2022/11/20 05:09:41;;;;;;;13.13;10.40;;;;;;;-2.61;86.33;99782.53;4984863;28;20038;-64
2022/11/20 05:12:09;;;;;;;15.25;11.13;;;;;;;-2.69;86.76;99779.75;4984439;28;20042;-64
2022/11/20 05:14:35;;;;;;;15.32;10.88;;;;;;;-2.67;86.43;99790.78;4984853;28;20030;-64
2022/11/20 05:17:01;;;;;;;14.13;10.98;;;;;;;-2.62;86.40;99793.50;4984813;28;20027;-64
2022/11/20 05:19:26;;;;;;;15.45;11.63;;;;;;;-2.54;86.20;99796.28;4982055;28;20039;-64
2022/11/20 05:21:52;;;;;;;15.40;11.57;;;;;;;-2.56;86.12;99788.63;4977952;28;20035;-64
2022/11/20 05:24:17;;;;;;;17.45;10.85;;;;;;;-2.64;86.43;99792.56;5000407;28;20199;-65
2022/11/20 05:26:43;;;;;;;15.43;10.65;;;;;;;-2.71;86.93;99801.63;4985939;28;20358;-65
2022/11/20 05:29:11;;;;;;;15.63;12.23;;;;;;;-2.59;86.15;99796.13;4977129;28;20023;-66
2022/11/20 05:31:39;;;;;;;15.80;11.57;;;;;;;-2.61;86.49;99813.84;4984551;28;20030;-66
2022/11/20 05:34:05;;;;;;;16.20;11.63;;;;;;;-2.66;85.57;99809.41;4994378;28;20309;-65
2022/11/20 05:36:31;;;;;;;18.92;12.68;;;;;;;-2.53;85.87;99815.75;4999627;28;20058;-64
2022/11/20 05:38:56;;;;;;;17.23;12.30;;;;;;;-2.65;85.94;99824.69;4964675;29;20038;-65
2022/11/20 05:41:22;;;;;;;15.07;11.10;;;;;;;-2.53;86.13;99816.59;4994863;28;20029;-66
2022/11/20 05:43:49;;;;;;;17.92;13.20;;;;;;;-2.48;86.04;99815.09;4993474;28;20033;-64
2022/11/20 05:46:18;;;;;;;16.85;12.40;;;;;;;-2.60;85.98;99802.84;4983571;28;20216;-66
2022/11/20 05:48:44;;;;;;;19.67;12.35;;;;;;;-2.60;85.44;99815.53;4983945;28;20366;-67
2022/11/20 05:51:12;;;;;;;17.00;11.63;;;;;;;-2.65;85.69;99821.25;4982832;28;20203;-65
2022/11/20 05:53:38;;;;;;;16.65;11.88;;;;;;;-2.64;85.86;99813.72;4984118;28;20338;-65
2022/11/20 05:56:18;;;;;;;16.58;11.88;;;;;;;-2.73;86.26;99808.34;4983883;28;20031;-65
2022/11/20 05:58:44;;;;;;;15.52;11.88;;;;;;;-2.55;85.60;99832.56;4984153;28;20054;-65
2022/11/20 06:01:13;;;;;;;18.35;12.98;;;;;;;-2.54;85.85;99819.09;4987396;28;20022;-66
2022/11/20 06:03:42;;;;;;;16.35;11.68;;;;;;;-2.64;84.86;99835.66;4994286;28;20031;-65
2022/11/20 06:06:08;;;;;;;17.60;12.43;;;;;;;-2.75;84.94;99837.84;4984098;28;20042;-66
2022/11/20 06:08:34;;;;;;;17.48;12.40;;;;;;;-2.74;85.50;99859.81;4992451;28;20025;-65
2022/11/20 06:11:05;;;;;;;16.98;11.65;;;;;;;-2.73;85.42;99838.75;4992386;28;20106;-66
2022/11/20 06:13:31;;;;;;;17.23;12.60;;;;;;;-2.66;85.80;99855.03;4990260;28;20023;-68
2022/11/20 06:15:57;;;;;;;20.05;13.98;;;;;;;-2.63;85.96;99845.84;4996339;28;20030;-67
2022/11/20 06:18:27;;;;;;;16.92;12.65;;;;;;;-2.40;85.61;99848.31;4991369;28;20341;-66
2022/11/20 06:21:08;;;;;;;17.10;11.98;;;;;;;-2.71;85.49;99867.53;4995340;28;20126;-66
2022/11/20 06:23:35;;;;;;;19.75;13.00;;;;;;;-2.53;84.84;99862.25;4993892;28;20203;-65
2022/11/20 06:26:15;;;;;;;14.45;11.32;;;;;;;-2.73;84.75;99858.16;4989766;28;20026;-65
2022/11/20 06:28:41;;;;;;;17.02;12.55;;;;;;;-2.47;85.03;99882.72;4988363;28;20093;-65
2022/11/20 06:31:09;;;;;;;17.73;12.05;;;;;;;-2.43;84.83;99891.31;4990810;28;20326;-66
2022/11/20 06:33:35;;;;;;;17.23;11.80;;;;;;;-2.52;85.19;99885.91;4993705;28;20061;-66
2022/11/20 06:36:01;;;;;;;15.85;11.80;;;;;;;-2.60;84.86;99889.03;4983564;28;20019;-66
2022/11/20 06:38:28;;;;;;;16.95;12.02;;;;;;;-2.62;85.42;99892.38;4982588;28;20023;-67
2022/11/20 06:40:54;;;;;;;17.88;12.77;;;;;;;-2.37;84.79;99901.66;4983778;28;20031;-67
2022/11/20 06:43:20;;;;;;;16.55;12.60;;;;;;;-2.56;84.36;99900.16;4984073;28;20031;-67
2022/11/20 06:45:45;;;;;;;18.65;12.77;;;;;;;-2.49;85.03;99899.56;4983729;28;20046;-66
2022/11/20 06:48:11;;;;;;;16.55;12.60;;;;;;;-2.50;85.33;99904.59;4983863;28;20034;-67
2022/11/20 06:50:37;;;;;;;16.33;12.50;;;;;;;-2.64;83.96;99904.09;4983400;28;20027;-66
2022/11/20 06:53:04;;;;;;;15.90;12.18;;;;;;;-2.48;84.82;99890.28;4988688;28;20047;-65
2022/11/20 06:55:31;;;;;;;14.52;11.32;;;;;;;-2.33;84.41;99893.34;4983596;28;20030;-66
2022/11/20 06:57:57;;;;;;;16.60;12.40;;;;;;;-2.33;84.34;99882.34;4983638;28;20128;-65
2022/11/20 07:00:23;;;;;;;16.42;12.40;;;;;;;-2.34;82.90;99876.41;4983523;28;20037;-66
2022/11/20 07:02:49;;;;;;;22.50;13.82;;;;;;;-2.23;83.72;99886.91;4983842;28;20137;-65
2022/11/20 07:05:15;;;;;;;17.75;12.55;;;;;;;-2.38;84.28;99894.00;4983481;28;20031;-66
2022/11/20 07:07:41;;;;;;;18.58;12.32;;;;;;;-2.53;83.27;99899.41;4987971;28;20358;-65
2022/11/20 07:10:07;;;;;;;17.23;11.60;;;;;;;-2.32;83.11;99892.53;4998848;28;20031;-65
2022/11/20 07:12:33;;;;;;;16.63;12.40;;;;;;;-2.48;82.91;99888.63;4987537;28;20256;-66
2022/11/20 07:14:58;;;;;;;17.95;13.07;;;;;;;-2.26;83.44;99885.13;5002432;28;20041;-66
2022/11/20 07:17:24;;;;;;;18.35;13.50;;;;;;;-2.36;83.67;99895.78;4988483;28;20099;-66
2022/11/20 07:19:49;;;;;;;15.82;12.00;;;;;;;-2.47;83.77;99892.00;4983381;28;20031;-66
2022/11/20 07:22:15;;;;;;;17.67;12.25;;;;;;;-2.26;83.57;99891.88;4983306;28;20623;-67
2022/11/20 07:24:40;;;;;;;17.27;12.90;;;;;;;-2.22;83.21;99886.09;5004723;28;20061;-65
2022/11/20 07:27:06;;;;;;;18.35;13.10;;;;;;;-2.30;83.68;99892.59;4986846;28;20030;-65
2022/11/20 07:29:32;;;;;;;17.88;12.68;;;;;;;-2.30;82.90;99895.97;4986822;28;20038;-66
2022/11/20 07:31:57;;;;;;;18.58;13.35;;;;;;;-2.19;83.27;99905.66;4986149;28;20082;-66
2022/11/20 07:34:23;;;;;;;17.58;12.52;;;;;;;-2.30;83.41;99897.66;4986348;28;20041;-66
2022/11/20 07:36:48;;;;;;;18.80;12.80;;;;;;;-2.27;82.77;99893.56;4986269;28;20094;-66
2022/11/20 07:39:14;;;;;;;18.30;13.52;;;;;;;-2.21;83.12;99907.25;4986888;28;20030;-66
2022/11/20 07:41:40;;;;;;;18.45;13.73;;;;;;;-2.20;83.16;99909.00;4986349;28;20226;-65
2022/11/20 07:44:05;;;;;;;17.63;12.25;;;;;;;-1.98;83.16;99908.88;4986266;28;20058;-66
2022/11/20 07:46:31;;;;;;;17.60;13.95;;;;;;;-2.08;83.02;99911.94;4986217;28;20318;-65
2022/11/20 07:48:57;;;;;;;21.67;13.82;;;;;;;-2.26;82.78;99905.41;4986138;28;20027;-66
2022/11/20 07:51:22;;;;;;;17.88;12.80;;;;;;;-2.41;83.75;99904.91;4986025;28;20110;-66
2022/11/20 07:53:51;;;;;;;19.80;14.00;;;;;;;-2.40;83.59;99877.88;4985958;28;20030;-66
2022/11/20 07:56:16;;;;;;;18.73;14.18;;;;;;;-2.10;83.09;99906.78;4999336;28;20048;-66
2022/11/20 07:58:42;;;;;;;18.83;14.15;;;;;;;-2.10;82.28;99903.41;5005529;28;20030;-66
2022/11/20 08:01:08;;;;;;;20.08;14.73;;;;;;;-2.02;82.46;99901.09;5002442;28;20070;-66
2022/11/20 08:03:34;;;;;;;18.30;13.82;;;;;;;-1.85;83.12;99902.53;4986605;28;20035;-66
2022/11/20 08:06:03;;;;;;;19.52;13.20;;;;;;;-1.66;82.42;99911.59;4982835;28;20319;-66
2022/11/20 08:08:29;;;;;;;17.63;12.93;;;;;;;-1.96;81.34;99924.16;4981079;28;20038;-65
2022/11/20 08:14:11;;;;;;;18.15;13.80;;;;;;;-1.97;81.53;99907.19;4985575;28;20065;-66
2022/11/20 08:16:27;;;;;;;21.42;13.60;;;;;;;-2.02;81.53;99927.34;4985790;28;20027;-66
2022/11/20 08:18:53;;;;;;;16.80;13.27;;;;;;;-1.82;82.08;99933.09;4986153;28;20101;-65
2022/11/20 08:21:19;;;;;;;21.33;14.10;;;;;;;-1.73;81.51;99930.81;4984119;28;20034;-65
2022/11/20 08:23:44;;;;;;;19.83;13.85;;;;;;;-1.80;81.26;99928.06;4992454;28;20039;-65
2022/11/20 08:26:10;;;;;;;19.30;13.93;;;;;;;-1.64;81.99;99937.91;4985474;28;20038;-65
2022/11/20 08:28:35;;;;;;;21.83;14.90;;;;;;;-1.97;82.18;99930.88;4985855;28;20243;-66
2022/11/20 08:31:02;;;;;;;21.10;14.63;;;;;;;-2.01;81.53;99913.00;4985238;28;20038;-65
2022/11/20 08:33:29;;;;;;;20.58;15.73;;;;;;;-1.75;81.14;99919.78;4985471;28;20323;-64
2022/11/20 08:36:01;;;;;;;29.05;19.75;;;;;;;-1.65;81.52;99909.94;5002796;28;20026;-64
2022/11/20 08:38:27;;;;;;;21.85;15.60;;;;;;;-1.56;81.18;99927.97;5004703;28;20034;-65
2022/11/20 08:43:41;;;;;;;23.13;15.70;;;;;;;-1.56;81.75;99926.28;4991015;28;20271;-66
2022/11/20 08:46:06;;;;;;;20.98;15.85;;;;;;;-1.56;80.44;99930.50;4993511;28;20030;-66
2022/11/20 08:48:32;;;;;;;21.27;15.45;;;;;;;-1.58;80.91;99925.38;4994986;28;20328;-65
2022/11/20 08:50:59;;;;;;;20.50;14.38;;;;;;;-1.42;80.44;99930.94;4991829;28;20078;-66
2022/11/20 08:53:24;;;;;;;24.38;15.95;;;;;;;-1.43;80.57;99939.38;4993320;28;20026;-66
2022/11/20 08:55:50;;;;;;;20.40;14.30;;;;;;;-1.28;80.29;99944.09;4993284;28;20122;-68
2022/11/20 08:58:16;;;;;;;23.10;16.50;;;;;;;-1.21;81.52;99951.06;4995381;28;20054;-66
2022/11/20 09:00:41;;;;;;;27.55;17.75;;;;;;;-1.32;80.34;99952.41;4993457;28;20057;-67
2022/11/20 09:03:07;;;;;;;23.25;16.27;;;;;;;-1.43;80.69;99959.69;4992578;28;20121;-65
2022/11/20 09:05:32;;;;;;;24.40;16.98;;;;;;;-1.33;80.45;99969.31;4992591;28;20026;-66
2022/11/20 09:07:59;;;;;;;22.55;16.00;;;;;;;-1.41;80.89;99979.25;4997449;28;20023;-68
2022/11/20 09:10:25;;;;;;;24.08;17.15;;;;;;;-1.38;80.28;99983.56;4993309;28;20030;-66
2022/11/20 09:12:51;;;;;;;32.00;21.13;;;;;;;-1.20;80.46;99995.13;4986107;28;20053;-65
2022/11/20 09:15:17;;;;;;;24.80;18.40;;;;;;;-1.22;80.68;99995.06;4994680;28;20061;-66
2022/11/20 09:17:51;;;;;;;24.92;16.58;;;;;;;-1.29;80.12;99991.47;4995285;28;20022;-67
2022/11/20 09:20:17;;;;;;;25.23;17.02;;;;;;;-1.16;80.53;99987.63;4986947;28;20053;-65
2022/11/20 09:22:42;;;;;;;23.13;17.42;;;;;;;-1.19;80.23;99990.09;4992852;28;20061;-67
2022/11/20 09:25:08;;;;;;;22.50;16.83;;;;;;;-1.29;80.60;100000.78;5000625;28;20089;-66
2022/11/20 09:27:35;;;;;;;21.33;15.82;;;;;;;-1.19;80.31;100002.78;4984499;28;20338;-66
2022/11/20 09:30:01;;;;;;;25.10;16.60;;;;;;;-1.32;80.00;100008.31;4984193;28;20062;-66
2022/11/20 09:32:27;;;;;;;23.60;16.77;;;;;;;-1.23;80.97;100014.56;4984527;28;20046;-67
2022/11/20 09:34:52;;;;;;;24.40;17.48;;;;;;;-1.16;79.30;100019.81;4984389;28;20192;-66
2022/11/20 09:37:18;;;;;;;25.42;16.58;;;;;;;-1.13;80.92;100023.28;4988638;28;20042;-66
2022/11/20 09:39:43;;;;;;;26.05;17.20;;;;;;;-1.03;80.00;100024.44;5001352;28;20100;-67
2022/11/20 09:42:12;;;;;;;24.85;17.05;;;;;;;-0.99;80.06;100033.91;4982831;28;20074;-66
2022/11/20 09:45:09;;;;;;;23.02;16.63;;;;;;;-0.83;81.07;100029.28;4983935;28;20035;-67
2022/11/20 09:48:07;;;;;;;26.48;17.80;;;;;;;-0.84;80.06;100022.47;4986944;28;20049;-67
2022/11/20 09:50:43;;;;;;;23.48;16.65;;;;;;;-0.76;80.07;100031.19;4983864;28;20037;-66
2022/11/20 09:53:24;;;;;;;27.80;18.25;;;;;;;-0.74;80.42;100025.34;4983998;28;20334;-65
2022/11/20 09:55:51;;;;;;;30.33;18.92;;;;;;;-0.73;80.55;100033.81;4982296;28;20106;-66
2022/11/20 09:58:39;;;;;;;25.92;17.13;;;;;;;-0.73;79.73;100042.34;4984100;28;20146;-66
2022/11/20 10:01:17;;;;;;;26.25;19.48;;;;;;;-0.77;79.80;100021.84;4982848;28;20284;-65
2022/11/20 10:03:48;;;;;;;28.60;19.35;;;;;;;-0.75;81.44;100017.66;4991617;28;20026;-67
2022/11/20 10:06:18;;;;;;;27.00;18.73;;;;;;;-0.89;79.53;100018.09;4991284;28;20022;-67
2022/11/20 10:09:11;;;;;;;32.38;20.67;;;;;;;-0.76;79.21;100032.03;4994234;28;20069;-66
2022/11/20 10:12:06;;;;;;;28.17;17.92;;;;;;;-0.67;80.59;100036.56;4992439;28;20030;-68
2022/11/20 10:14:55;;;;;;;30.42;19.30;;;;;;;-0.54;79.68;100033.56;4976936;28;20087;-67
2022/11/20 10:17:48;;;;;;;33.25;20.98;;;;;;;-0.55;79.45;100034.38;4991295;28;20034;-65
2022/11/20 10:20:59;;;;;;;36.88;21.45;;;;;;;-0.59;80.95;100040.19;4990087;28;20026;-66
2022/11/20 10:23:43;;;;;;;32.00;20.70;;;;;;;-0.59;79.59;100036.78;4993809;28;20038;-66
2022/11/20 10:26:29;;;;;;;36.42;22.17;;;;;;;-0.56;79.67;100037.72;4992814;28;20086;-65
2022/11/20 10:29:07;;;;;;;40.63;21.77;;;;;;;-0.46;79.58;100048.19;4988874;28;20068;-66
2022/11/20 10:31:34;;;;;;;34.63;20.67;;;;;;;-0.43;81.04;100048.25;4989377;28;20361;-67
2022/11/20 10:34:08;;;;;;;34.03;20.45;;;;;;;-0.62;79.25;100047.72;4991421;28;20327;-66
2022/11/20 10:36:39;;;;;;;35.75;21.98;;;;;;;-0.72;79.89;100013.53;5011302;28;20069;-66
2022/11/20 10:39:15;;;;;;;34.47;22.02;;;;;;;-0.57;80.13;100038.56;4984931;28;20319;-65
2022/11/20 10:41:42;;;;;;;39.72;21.27;;;;;;;-0.53;79.46;100042.03;4983025;28;20035;-66
2022/11/20 10:47:18;;;;;;;40.05;22.63;;;;;;;-0.50;81.12;100031.09;4994188;28;20093;-65
2022/11/20 10:49:47;;;;;;;37.13;23.40;;;;;;;-0.44;80.97;100049.06;4996053;28;20322;-65
2022/11/20 10:52:22;;;;;;;40.53;23.42;;;;;;;-0.55;81.30;100047.06;4987268;28;20050;-64
2022/11/20 10:55:17;;;;;;;39.38;22.80;;;;;;;-0.54;80.83;100053.91;5003987;28;20038;-65
2022/11/20 10:58:12;;;;;;;48.65;24.77;;;;;;;-0.60;81.33;100048.66;4964989;28;20085;-65
2022/11/20 11:00:38;;;;;;;41.63;23.45;;;;;;;-0.52;80.87;100062.44;4967675;28;20215;-66
2022/11/20 11:03:19;;;;;;;39.17;23.98;;;;;;;-0.47;81.39;100061.69;4985401;28;20031;-66
2022/11/20 11:06:12;;;;;;;38.03;22.48;;;;;;;-0.47;80.82;100067.69;5000807;28;20080;-66
2022/11/20 11:08:39;;;;;;;41.30;24.25;;;;;;;-0.59;81.60;100064.75;4988466;28;20056;-65
2022/11/20 11:11:24;;;;;;;49.33;25.52;;;;;;;-0.62;81.19;100065.53;4986943;28;20136;-65
2022/11/20 11:13:50;;;;;;;41.03;25.13;;;;;;;-0.54;81.93;100068.31;4986850;28;20035;-66
2022/11/20 11:16:24;;;;;;;42.47;24.85;;;;;;;-0.52;81.92;100064.97;4989411;28;20022;-66
2022/11/20 11:18:51;;;;;;;44.50;22.90;;;;;;;-0.48;81.24;100071.03;5007820;28;20037;-66
2022/11/20 11:21:24;;;;;;;40.45;24.80;;;;;;;-0.65;81.97;100062.03;4989960;28;20031;-66
2022/11/20 11:23:59;;;;;;;35.97;21.92;;;;;;;-0.55;82.02;100071.66;4998555;28;20438;-66
2022/11/20 11:26:25;;;;;;;46.92;24.65;;;;;;;-0.46;81.97;100076.16;4993595;28;20035;-67
2022/11/20 11:29:03;;;;;;;41.47;24.35;;;;;;;-0.52;82.74;100064.13;4986801;28;20086;-67
2022/11/20 11:31:30;;;;;;;44.75;23.92;;;;;;;-0.50;81.81;100065.00;4993693;28;20035;-67
2022/11/20 11:34:13;;;;;;;39.45;21.85;;;;;;;-0.41;81.82;100077.16;4994769;28;20026;-68
2022/11/20 11:36:39;;;;;;;41.03;23.20;;;;;;;-0.38;81.48;100083.19;4989150;28;20023;-66
2022/11/20 11:39:11;;;;;;;40.17;24.35;;;;;;;-0.36;82.06;100078.16;4995080;28;20326;-67
2022/11/20 11:41:37;;;;;;;45.50;26.67;;;;;;;-0.27;82.43;100073.34;4986968;28;20026;-68